Time;durP1;ratioP1;P1;durP2;ratioP2;P2;SDS_P1;SDS_P2;PMS_P1;PMS_P2;Temp;Humidity;BMP_temperature;BMP_pressure;BME280_temperature;BME280_humidity;BME280_pressure;Samples;Min_cycle;Max_cycle;Signal;HPM_P1;HPM_P2
2021/05/17 00:01:59;;;;;;;5.53;2.40;;;16.90;99.90;;;;;;4955682;29;20023;-79
2021/05/17 00:04:32;;;;;;;2.88;2.20;;;16.90;99.90;;;;;;4955250;29;20031;-80
2021/05/17 00:06:59;;;;;;;6.93;2.70;;;16.90;99.90;;;;;;4955233;29;20024;-81
2021/05/17 00:09:26;;;;;;;3.35;2.17;;;16.90;99.90;;;;;;4955453;29;20023;-79
2021/05/17 00:11:53;;;;;;;4.72;2.35;;;16.80;99.90;;;;;;4937904;29;20027;-79
2021/05/17 00:14:20;;;;;;;5.55;2.50;;;16.80;99.90;;;;;;4955493;29;20047;-78
2021/05/17 00:16:46;;;;;;;6.93;2.47;;;16.70;99.90;;;;;;4955337;29;20035;-78
2021/05/17 00:19:13;;;;;;;6.82;3.50;;;16.70;99.90;;;;;;4955159;29;20019;-78
2021/05/17 00:21:40;;;;;;;4.70;2.38;;;16.70;99.90;;;;;;4955379;29;20019;-78
2021/05/17 00:24:08;;;;;;;6.25;2.80;;;16.80;99.90;;;;;;4955224;29;20566;-78
2021/05/17 00:26:34;;;;;;;4.50;2.40;;;16.80;99.90;;;;;;4955044;29;20031;-77
2021/05/17 00:29:00;;;;;;;4.72;2.70;;;16.70;99.90;;;;;;4954951;29;20042;-78
2021/05/17 00:31:26;;;;;;;4.15;2.58;;;16.70;99.90;;;;;;4955145;29;20355;-78
2021/05/17 00:33:52;;;;;;;4.85;2.50;;;16.80;99.90;;;;;;4954886;29;20023;-78
2021/05/17 00:36:18;;;;;;;4.30;2.30;;;16.80;99.90;;;;;;4954765;29;20114;-78
2021/05/17 00:38:44;;;;;;;5.60;2.80;;;16.80;99.90;;;;;;4937799;29;20118;-79
2021/05/17 00:41:10;;;;;;;4.35;2.38;;;16.90;99.90;;;;;;4955045;29;20040;-77
2021/05/17 00:43:37;;;;;;;3.13;2.20;;;16.90;99.90;;;;;;4954745;29;20026;-79
2021/05/17 00:46:05;;;;;;;3.97;2.40;;;16.90;99.90;;;;;;4936783;29;20033;-77
2021/05/17 00:48:32;;;;;;;4.90;2.42;;;16.80;99.90;;;;;;4954678;29;20467;-78
2021/05/17 00:50:58;;;;;;;5.47;2.47;;;16.70;99.90;;;;;;4954490;29;20051;-78
2021/05/17 00:53:25;;;;;;;8.57;2.75;;;16.70;99.90;;;;;;4937298;29;20039;-76
2021/05/17 00:55:51;;;;;;;4.63;2.38;;;16.50;99.90;;;;;;4954478;29;20471;-79
2021/05/17 00:58:17;;;;;;;4.38;2.47;;;16.60;99.90;;;;;;4954491;29;20026;-77
2021/05/17 01:00:43;;;;;;;5.50;2.42;;;16.60;99.90;;;;;;4937366;29;20480;-78
2021/05/17 01:03:09;;;;;;;6.00;2.90;;;16.60;99.90;;;;;;4954344;29;20027;-78
2021/05/17 01:05:36;;;;;;;4.28;2.60;;;16.70;99.90;;;;;;4954127;29;20064;-79
2021/05/17 01:08:03;;;;;;;4.57;2.50;;;16.60;99.90;;;;;;4954474;29;20039;-77
2021/05/17 01:10:31;;;;;;;5.07;2.70;;;16.60;99.90;;;;;;4954368;29;20086;-78
2021/05/17 01:12:57;;;;;;;6.22;2.85;;;16.50;99.90;;;;;;4954239;29;20038;-78
2021/05/17 01:15:23;;;;;;;5.63;2.80;;;16.20;99.90;;;;;;4954326;29;20090;-78
2021/05/17 01:17:49;;;;;;;5.55;3.70;;;16.20;99.90;;;;;;4954018;29;20031;-77
2021/05/17 01:20:18;;;;;;;6.03;3.00;;;16.30;99.90;;;;;;4954260;29;20022;-78
2021/05/17 01:25:19;;;;;;;4.60;2.55;;;16.50;99.90;;;;;;4954306;29;20031;-77
2021/05/17 01:27:46;;;;;;;4.72;2.72;;;16.40;99.90;;;;;;4954123;29;20027;-79
2021/05/17 01:30:13;;;;;;;5.15;2.80;;;16.40;99.90;;;;;;4953665;29;20024;-79
2021/05/17 01:32:39;;;;;;;7.45;3.05;;;16.40;99.90;;;;;;4954063;29;20019;-79
2021/05/17 01:35:06;;;;;;;7.75;3.40;;;16.40;99.90;;;;;;4953741;29;20366;-79
2021/05/17 01:37:33;;;;;;;6.18;3.00;;;16.30;99.90;;;;;;4953535;29;20042;-79
2021/05/17 01:40:00;;;;;;;10.45;3.38;;;16.20;99.90;;;;;;4953969;29;20463;-78
2021/05/17 01:42:28;;;;;;;6.32;3.17;;;16.30;99.90;;;;;;4936341;29;20425;-79
2021/05/17 01:45:01;;;;;;;5.30;3.10;;;16.20;99.90;;;;;;4953679;28;20019;-78
2021/05/17 01:47:29;;;;;;;5.28;3.15;;;16.30;99.90;;;;;;4953615;29;20102;-78
2021/05/17 01:49:58;;;;;;;5.55;3.25;;;16.30;99.90;;;;;;4953793;29;20026;-79
2021/05/17 01:52:25;;;;;;;6.40;3.10;;;16.10;99.90;;;;;;4953549;29;20138;-79
2021/05/17 01:54:52;;;;;;;4.82;2.95;;;15.60;99.90;;;;;;4936440;29;20047;-80
2021/05/17 01:57:20;;;;;;;7.53;3.83;;;15.60;99.90;;;;;;4953463;28;20489;-77
2021/05/17 01:59:45;;;;;;;5.32;3.33;;;15.60;99.90;;;;;;4953724;29;20019;-81
2021/05/17 02:02:11;;;;;;;7.55;3.88;;;15.80;99.90;;;;;;4936401;29;20038;-79
2021/05/17 02:04:37;;;;;;;7.57;4.15;;;16.00;99.90;;;;;;4953211;29;20098;-78
2021/05/17 02:07:04;;;;;;;7.72;3.58;;;16.10;99.90;;;;;;4953350;29;20047;-79
2021/05/17 02:09:36;;;;;;;7.50;3.40;;;15.50;99.90;;;;;;4953217;29;20042;-78
2021/05/17 02:12:03;;;;;;;9.10;3.47;;;15.50;99.90;;;;;;4936133;29;20027;-79
2021/05/17 02:14:30;;;;;;;9.88;3.45;;;15.80;99.90;;;;;;4953023;29;20027;-79
2021/05/17 02:16:56;;;;;;;6.90;3.80;;;16.00;99.90;;;;;;4953172;29;20032;-78
2021/05/17 02:19:23;;;;;;;7.38;3.33;;;16.10;99.90;;;;;;4953180;29;20027;-79
2021/05/17 02:21:49;;;;;;;6.22;3.35;;;16.10;99.90;;;;;;4953342;29;20101;-79
2021/05/17 02:24:15;;;;;;;7.50;3.65;;;16.30;99.90;;;;;;4952997;29;20023;-79
2021/05/17 02:26:41;;;;;;;6.88;2.83;;;16.30;99.90;;;;;;4953104;29;20140;-79
2021/05/17 02:29:08;;;;;;;6.18;3.13;;;16.30;99.90;;;;;;4953153;29;20019;-79
2021/05/17 02:31:34;;;;;;;6.82;2.80;;;16.30;99.90;;;;;;4953249;29;20083;-80
2021/05/17 02:34:01;;;;;;;5.63;3.08;;;16.20;99.90;;;;;;4935954;29;20037;-80
2021/05/17 02:36:27;;;;;;;4.50;2.58;;;16.20;99.90;;;;;;4953067;29;20027;-79
2021/05/17 02:38:53;;;;;;;5.13;2.75;;;16.20;99.90;;;;;;4953315;29;20048;-78
2021/05/17 02:41:22;;;;;;;6.72;2.83;;;16.20;99.90;;;;;;4952942;29;20110;-79
2021/05/17 02:43:48;;;;;;;3.58;2.40;;;16.20;99.90;;;;;;4953026;28;20012;-79
2021/05/17 02:46:15;;;;;;;7.15;3.00;;;16.10;99.90;;;;;;4952921;29;20038;-78
2021/05/17 02:48:42;;;;;;;5.68;2.85;;;15.90;99.90;;;;;;4953216;29;20371;-79
2021/05/17 02:51:12;;;;;;;5.05;2.35;;;15.80;99.90;;;;;;4952990;29;20030;-78
2021/05/17 02:53:38;;;;;;;4.30;2.70;;;15.80;99.90;;;;;;4953101;29;20031;-78
2021/05/17 02:56:14;;;;;;;4.53;2.78;;;15.70;99.90;;;;;;4952589;29;20034;-77
2021/05/17 02:58:42;;;;;;;4.78;2.60;;;15.70;99.90;;;;;;4953266;29;20023;-78
2021/05/17 03:01:16;;;;;;;4.75;2.90;;;15.60;99.90;;;;;;4952734;29;20029;-77
2021/05/17 03:03:52;;;;;;;4.20;2.92;;;15.60;99.90;;;;;;4935712;29;20020;-76
2021/05/17 03:06:27;;;;;;;4.00;2.50;;;15.50;99.90;;;;;;4952822;29;20619;-77
2021/05/17 03:09:00;;;;;;;4.28;2.85;;;15.70;99.90;;;;;;4952731;28;20027;-78
2021/05/17 03:11:27;;;;;;;4.50;2.63;;;15.70;99.90;;;;;;4956692;29;20113;-78
2021/05/17 03:13:54;;;;;;;7.28;2.80;;;15.50;99.90;;;;;;4956504;29;20019;-77
2021/05/17 03:16:25;;;;;;;5.63;3.20;;;15.40;99.90;;;;;;4956201;29;20034;-78
2021/05/17 03:18:54;;;;;;;4.20;2.70;;;15.30;99.90;;;;;;4956295;29;20402;-76
2021/05/17 03:21:23;;;;;;;4.75;2.72;;;15.40;99.90;;;;;;4939009;29;20031;-77
2021/05/17 03:23:52;;;;;;;6.28;3.38;;;15.40;99.90;;;;;;4956501;29;20456;-74
2021/05/17 03:26:20;;;;;;;4.72;3.00;;;15.40;99.90;;;;;;4956000;29;20054;-77
2021/05/17 03:28:46;;;;;;;4.50;3.10;;;15.30;99.90;;;;;;4939009;29;20029;-77
2021/05/17 03:31:12;;;;;;;5.35;3.47;;;15.20;99.90;;;;;;4956301;29;20415;-77
2021/05/17 03:33:37;;;;;;;4.57;3.20;;;15.10;99.90;;;;;;4956479;29;20451;-76
2021/05/17 03:36:04;;;;;;;5.93;3.03;;;15.20;99.90;;;;;;4955686;29;20030;-76
2021/05/17 03:38:30;;;;;;;5.18;2.92;;;15.20;99.90;;;;;;4956154;29;20027;-77
2021/05/17 03:40:56;;;;;;;5.80;2.80;;;15.20;99.90;;;;;;4956143;29;20030;-77
2021/05/17 03:43:21;;;;;;;5.70;2.90;;;15.20;99.90;;;;;;4955930;28;20035;-76
2021/05/17 03:45:47;;;;;;;4.10;2.78;;;15.20;99.90;;;;;;4955898;29;20168;-77
2021/05/17 03:48:13;;;;;;;4.40;2.72;;;15.40;99.90;;;;;;4938937;29;20045;-77
2021/05/17 03:50:39;;;;;;;6.68;3.00;;;15.50;99.90;;;;;;4955845;29;20027;-77
2021/05/17 03:53:05;;;;;;;6.05;3.00;;;15.50;99.90;;;;;;4955711;29;20035;-76
2021/05/17 03:55:30;;;;;;;4.82;2.78;;;15.60;99.90;;;;;;4955683;29;20054;-77
2021/05/17 03:57:58;;;;;;;5.70;3.20;;;15.40;99.90;;;;;;4956299;29;20382;-77
2021/05/17 04:00:27;;;;;;;5.57;3.40;;;15.50;99.90;;;;;;4938314;29;20034;-77
2021/05/17 04:02:53;;;;;;;5.07;3.03;;;15.60;99.90;;;;;;4955370;29;20030;-78
2021/05/17 04:13:24;;;;;;;5.05;2.92;;;15.60;99.90;;;;;;4955766;29;20042;-78
2021/05/17 04:15:51;;;;;;;5.00;2.70;;;15.50;99.90;;;;;;4955454;29;20023;-77
2021/05/17 04:18:19;;;;;;;4.22;3.13;;;15.50;99.90;;;;;;4955105;29;20375;-77
2021/05/17 04:20:45;;;;;;;4.78;2.80;;;15.30;99.90;;;;;;4953976;28;20608;-76
2021/05/17 04:23:11;;;;;;;6.78;3.00;;;15.40;99.90;;;;;;4955201;29;20026;-78
2021/05/17 04:25:38;;;;;;;6.78;3.00;;;15.50;99.90;;;;;;4937809;29;20058;-78
2021/05/17 04:28:05;;;;;;;6.80;3.50;;;15.60;99.90;;;;;;4955472;29;20039;-77
2021/05/17 04:30:30;;;;;;;5.47;3.17;;;15.60;99.90;;;;;;4955061;29;20019;-78
2021/05/17 04:32:56;;;;;;;10.63;4.75;;;15.70;99.90;;;;;;4954952;29;20031;-78
2021/05/17 04:35:22;;;;;;;7.03;3.95;;;15.70;99.90;;;;;;4955265;29;20046;-76
2021/05/17 04:37:48;;;;;;;7.40;3.45;;;15.70;99.90;;;;;;4937654;29;20028;-78
2021/05/17 04:40:14;;;;;;;7.20;3.50;;;15.70;99.90;;;;;;4954811;29;20471;-80
2021/05/17 04:42:43;;;;;;;4.65;2.80;;;15.90;99.90;;;;;;4955251;29;20062;-78
2021/05/17 04:45:10;;;;;;;6.00;2.97;;;15.70;99.90;;;;;;4954941;28;20019;-78
2021/05/17 04:47:36;;;;;;;4.25;2.67;;;15.80;99.90;;;;;;4954429;29;20034;-78
2021/05/17 04:50:03;;;;;;;6.03;2.70;;;15.90;99.90;;;;;;4954585;29;20019;-77
2021/05/17 04:52:29;;;;;;;6.28;3.00;;;15.90;99.90;;;;;;4937382;29;20055;-77
2021/05/17 04:54:55;;;;;;;5.88;2.75;;;15.90;99.90;;;;;;4954710;29;20040;-78
2021/05/17 04:57:21;;;;;;;5.32;3.28;;;16.00;99.90;;;;;;4954725;29;20043;-77
2021/05/17 04:59:46;;;;;;;8.15;3.42;;;16.00;99.90;;;;;;4954741;29;20024;-78
2021/05/17 05:02:12;;;;;;;5.45;3.00;;;16.10;99.90;;;;;;4954278;29;20182;-78
2021/05/17 05:04:38;;;;;;;5.18;3.25;;;16.40;99.90;;;;;;4954380;29;20019;-76
2021/05/17 05:07:03;;;;;;;5.88;2.85;;;16.40;99.90;;;;;;4954171;29;20031;-79
2021/05/17 05:09:29;;;;;;;6.78;3.83;;;16.40;99.90;;;;;;4954645;29;20023;-78
2021/05/17 05:11:55;;;;;;;7.03;3.33;;;16.40;99.90;;;;;;4954345;29;20078;-79
2021/05/17 05:14:20;;;;;;;7.65;3.80;;;16.50;99.90;;;;;;4954468;29;20023;-82
2021/05/17 05:16:46;;;;;;;33.30;19.98;;;16.80;99.90;;;;;;4954110;29;20490;-79
2021/05/17 05:19:12;;;;;;;24.20;16.17;;;16.90;99.90;;;;;;4954025;29;20019;-80
2021/05/17 05:21:38;;;;;;;11.88;7.80;;;17.20;99.90;;;;;;4936962;29;20102;-79
2021/05/17 05:24:04;;;;;;;8.70;4.47;;;17.20;99.90;;;;;;4953820;29;20020;-82
2021/05/17 05:31:33;;;;;;;34.20;22.70;;;17.20;99.90;;;;;;4953903;29;20127;-78
2021/05/17 05:33:59;;;;;;;22.05;15.45;;;17.50;99.90;;;;;;4930218;29;20027;-77
2021/05/17 05:36:25;;;;;;;51.55;35.28;;;17.50;99.90;;;;;;4953028;29;20027;-79
2021/05/17 05:38:51;;;;;;;127.78;77.63;;;17.60;99.90;;;;;;4954060;29;20031;-79
2021/05/17 05:41:17;;;;;;;73.60;42.45;;;17.60;99.90;;;;;;4953401;29;20502;-78
2021/05/17 05:43:42;;;;;;;13.63;9.10;;;17.50;99.90;;;;;;4953062;28;20030;-78
2021/05/17 05:46:08;;;;;;;7.68;4.13;;;17.30;99.90;;;;;;4953514;29;20020;-78
2021/05/17 05:48:47;;;;;;;7.03;3.40;;;17.30;99.90;;;;;;4948079;28;20059;-78
2021/05/17 05:51:14;;;;;;;8.88;3.75;;;17.20;99.90;;;;;;4953823;28;20016;-77
2021/05/17 05:53:40;;;;;;;7.47;3.28;;;17.10;99.90;;;;;;4957509;28;20463;-78
2021/05/17 05:56:05;;;;;;;7.63;3.75;;;17.20;99.90;;;;;;4972541;28;20033;-77
2021/05/17 05:58:31;;;;;;;4.82;3.38;;;17.20;99.90;;;;;;4965239;28;20138;-76
2021/05/17 06:00:57;;;;;;;5.40;3.00;;;17.20;99.90;;;;;;4972223;28;20014;-77
2021/05/17 06:03:23;;;;;;;10.10;3.80;;;17.10;99.90;;;;;;4960087;28;20030;-79
2021/05/17 06:05:49;;;;;;;5.55;3.17;;;17.10;99.90;;;;;;4957245;28;20023;-80
2021/05/17 06:08:15;;;;;;;7.05;3.33;;;17.20;99.90;;;;;;4972486;28;20026;-79
2021/05/17 06:10:41;;;;;;;6.30;3.80;;;17.30;99.90;;;;;;4972297;28;20101;-79
2021/05/17 06:13:07;;;;;;;7.32;3.70;;;17.30;99.90;;;;;;4973037;28;20068;-80
2021/05/17 06:15:33;;;;;;;9.18;4.35;;;17.30;99.90;;;;;;4955316;28;20110;-77
2021/05/17 06:17:58;;;;;;;5.32;3.53;;;17.50;99.90;;;;;;4942870;29;20023;-77
2021/05/17 06:20:25;;;;;;;5.68;3.33;;;17.40;99.90;;;;;;4951866;29;20031;-78
2021/05/17 06:22:51;;;;;;;6.57;3.95;;;17.50;99.90;;;;;;4952979;29;20370;-77
2021/05/17 06:25:17;;;;;;;5.80;3.70;;;17.60;99.90;;;;;;4952995;29;20035;-81
2021/05/17 06:27:44;;;;;;;8.90;4.53;;;17.60;99.90;;;;;;4952342;29;20530;-82
2021/05/17 06:30:13;;;;;;;7.18;4.22;;;17.60;99.90;;;;;;4952911;29;20031;-82
2021/05/17 06:32:40;;;;;;;8.10;3.33;;;17.70;99.90;;;;;;4952856;29;20030;-81
2021/05/17 06:35:11;;;;;;;7.60;4.00;;;17.60;99.90;;;;;;4952820;29;20053;-78
2021/05/17 06:37:37;;;;;;;5.95;3.55;;;17.60;99.90;;;;;;4935432;29;20032;-79
2021/05/17 06:40:04;;;;;;;8.18;3.83;;;17.80;99.90;;;;;;4936005;29;20086;-80
2021/05/17 06:42:30;;;;;;;7.57;3.80;;;17.90;99.90;;;;;;4957959;28;20362;-79
2021/05/17 06:44:56;;;;;;;7.28;3.83;;;18.00;99.90;;;;;;4963355;28;20027;-79
2021/05/17 06:47:22;;;;;;;6.63;3.90;;;17.90;99.90;;;;;;4956528;29;20394;-77
2021/05/17 06:49:48;;;;;;;7.35;3.83;;;18.00;99.90;;;;;;4939432;29;20455;-78
2021/05/17 06:52:15;;;;;;;9.30;3.78;;;18.10;99.90;;;;;;4956671;29;20051;-79
2021/05/17 06:54:43;;;;;;;9.38;3.75;;;18.40;99.90;;;;;;4956840;29;20019;-79
2021/05/17 06:59:45;;;;;;;7.70;3.90;;;18.50;99.90;;;;;;4956502;29;20087;-79
2021/05/17 07:02:19;;;;;;;8.20;3.10;;;18.60;99.90;;;;;;4956119;29;20027;-80
2021/05/17 07:04:45;;;;;;;5.90;2.60;;;18.60;99.90;;;;;;4944113;28;20106;-80
2021/05/17 07:07:14;;;;;;;3.83;2.50;;;18.60;99.90;;;;;;4965149;28;20089;-80
2021/05/17 07:12:24;;;;;;;6.70;2.58;;;18.90;99.90;;;;;;4958102;28;20054;-81
2021/05/17 07:14:50;;;;;;;7.15;2.80;;;18.90;99.90;;;;;;4947736;28;20363;-78
2021/05/17 07:17:16;;;;;;;8.27;3.50;;;18.80;99.90;;;;;;4966039;28;20393;-82
2021/05/17 07:19:44;;;;;;;6.57;3.03;;;18.70;99.90;;;;;;4927118;29;20031;-81
2021/05/17 07:24:54;;;;;;;5.70;2.67;;;18.80;99.90;;;;;;4949070;28;20091;-81
2021/05/17 07:27:19;;;;;;;3.92;2.40;;;18.80;99.90;;;;;;4946651;29;20027;-80
2021/05/17 07:29:46;;;;;;;7.32;2.88;;;18.80;99.90;;;;;;4948964;28;20091;-81
2021/05/17 07:32:11;;;;;;;8.75;2.58;;;18.80;99.90;;;;;;4954252;28;20439;-80
2021/05/17 07:34:37;;;;;;;7.95;2.90;;;18.70;99.90;;;;;;4929524;29;20459;-82
2021/05/17 07:37:04;;;;;;;7.72;2.80;;;18.70;99.90;;;;;;4945644;29;20098;-80
2021/05/17 07:39:30;;;;;;;5.25;2.83;;;18.90;99.90;;;;;;4945129;29;20019;-81
2021/05/17 07:41:56;;;;;;;4.80;2.40;;;19.00;99.90;;;;;;4958679;28;20027;-80
2021/05/17 07:44:23;;;;;;;4.38;2.40;;;19.30;99.90;;;;;;4955485;28;20018;-80
2021/05/17 07:46:48;;;;;;;7.70;2.28;;;19.60;99.90;;;;;;4955831;29;20103;-80
2021/05/17 07:49:29;;;;;;;3.72;2.03;;;19.80;99.90;;;;;;4955291;28;20106;-81
2021/05/17 07:51:55;;;;;;;6.05;2.30;;;19.90;99.90;;;;;;4944156;29;20051;-80
2021/05/17 07:54:22;;;;;;;7.40;3.25;;;19.80;99.90;;;;;;4946429;29;20016;-78
2021/05/17 07:56:47;;;;;;;8.05;2.35;;;19.90;99.90;;;;;;4945988;28;20039;-80
2021/05/17 07:59:13;;;;;;;6.13;2.22;;;19.90;99.90;;;;;;4947437;28;20023;-79
2021/05/17 08:01:39;;;;;;;5.05;2.13;;;19.90;99.90;;;;;;4961538;28;20131;-82
2021/05/17 08:04:05;;;;;;;6.25;2.58;;;19.90;99.90;;;;;;4961961;28;20011;-80
2021/05/17 08:06:31;;;;;;;4.85;2.30;;;19.90;99.90;;;;;;4962549;28;20495;-79
2021/05/17 08:08:56;;;;;;;3.47;1.95;;;19.80;99.90;;;;;;4966115;28;20027;-79
2021/05/17 08:11:22;;;;;;;4.18;2.33;;;19.70;99.90;;;;;;4969318;28;20110;-77
2021/05/17 08:13:51;;;;;;;4.20;2.17;;;19.70;99.90;;;;;;4969313;28;20031;-81
2021/05/17 08:16:17;;;;;;;7.57;2.80;;;19.60;99.90;;;;;;4953074;28;20019;-79
2021/05/17 08:18:44;;;;;;;6.38;3.25;;;19.70;99.90;;;;;;4937653;28;20034;-81
2021/05/17 08:21:10;;;;;;;4.80;2.30;;;19.80;99.90;;;;;;4957510;28;20027;-82
2021/05/17 08:23:37;;;;;;;5.80;2.30;;;19.70;99.90;;;;;;4961530;28;21047;-79
2021/05/17 08:26:06;;;;;;;5.15;1.80;;;19.80;99.90;;;;;;4944818;28;20027;-79
2021/05/17 08:28:33;;;;;;;4.20;1.83;;;19.80;99.90;;;;;;4965905;28;20062;-79
2021/05/17 08:30:59;;;;;;;3.72;2.00;;;20.00;99.90;;;;;;4973761;28;20018;-81
2021/05/17 08:33:25;;;;;;;6.25;2.50;;;20.00;99.90;;;;;;4967282;28;20024;-79
2021/05/17 08:35:51;;;;;;;4.22;2.13;;;20.00;99.90;;;;;;4950581;28;20406;-80
2021/05/17 08:38:18;;;;;;;4.18;1.70;;;20.10;99.90;;;;;;4967830;28;20458;-79
2021/05/17 08:40:48;;;;;;;4.65;2.58;;;20.10;99.90;;;;;;4967100;28;20062;-80
2021/05/17 08:43:14;;;;;;;4.43;1.80;;;20.20;99.90;;;;;;4965266;28;20473;-80
2021/05/17 08:45:40;;;;;;;3.22;1.65;;;20.20;99.50;;;;;;4942569;29;20023;-80
2021/05/17 08:48:06;;;;;;;3.75;1.70;;;20.20;99.50;;;;;;4927886;29;20020;-80
2021/05/17 08:50:33;;;;;;;4.93;1.90;;;20.50;99.10;;;;;;4961131;28;20030;-81
2021/05/17 08:52:59;;;;;;;3.88;2.28;;;20.60;98.60;;;;;;4945695;28;20426;-81
2021/05/17 08:55:26;;;;;;;4.00;1.77;;;20.70;98.20;;;;;;4957793;28;20023;-81
2021/05/17 08:57:53;;;;;;;4.90;1.80;;;20.80;98.00;;;;;;4961079;28;20041;-80
2021/05/17 09:00:21;;;;;;;3.58;1.88;;;21.20;98.20;;;;;;4973340;28;20011;-81
2021/05/17 09:02:51;;;;;;;4.22;2.05;;;21.40;96.60;;;;;;4952514;28;20046;-80
2021/05/17 09:05:31;;;;;;;8.73;3.53;;;21.80;95.80;;;;;;4944791;28;20023;-84
2021/05/17 09:07:59;;;;;;;3.97;1.98;;;22.10;94.30;;;;;;4962570;28;20360;-84
2021/05/17 09:10:30;;;;;;;4.50;1.98;;;22.20;93.30;;;;;;4941621;28;20031;-83
2021/05/17 09:13:04;;;;;;;5.47;1.77;;;22.20;92.30;;;;;;4946960;28;20368;-85
2021/05/17 09:15:38;;;;;;;7.40;2.83;;;22.80;90.60;;;;;;4941735;28;20022;-81
2021/05/17 09:18:18;;;;;;;5.68;2.80;;;22.50;90.30;;;;;;4946541;28;20030;-85
2021/05/17 09:20:49;;;;;;;5.47;3.13;;;22.50;91.30;;;;;;4958063;28;20047;-79
2021/05/17 09:23:21;;;;;;;4.00;2.00;;;22.90;91.70;;;;;;4950468;28;20121;-81
2021/05/17 09:26:17;;;;;;;8.57;2.10;;;22.80;90.30;;;;;;4947807;29;20030;-81
2021/05/17 09:28:50;;;;;;;9.13;2.65;;;23.00;91.30;;;;;;4939841;29;20043;-82
2021/05/17 09:31:19;;;;;;;6.70;1.70;;;23.00;90.80;;;;;;4947592;29;20059;-83
2021/05/17 09:33:48;;;;;;;4.05;1.83;;;23.20;91.60;;;;;;4925482;29;20023;-81
2021/05/17 09:36:41;;;;;;;7.50;2.10;;;23.40;90.70;;;;;;4942192;29;20031;-80
2021/05/17 09:39:08;;;;;;;5.65;1.73;;;23.60;89.60;;;;;;4934184;29;20371;-80
2021/05/17 09:41:45;;;;;;;5.43;1.55;;;23.90;88.40;;;;;;4935634;29;20083;-83
2021/05/17 09:44:19;;;;;;;6.65;1.80;;;23.60;87.30;;;;;;4938749;28;20039;-84
2021/05/17 09:47:04;;;;;;;3.75;1.50;;;23.90;86.30;;;;;;4954172;28;20557;-82
2021/05/17 09:49:50;;;;;;;2.90;1.42;;;23.50;86.40;;;;;;4962027;28;20106;-81
2021/05/17 09:52:33;;;;;;;7.30;1.63;;;23.30;86.00;;;;;;4961993;28;20127;-80
2021/05/17 09:55:06;;;;;;;3.33;1.77;;;23.90;85.50;;;;;;4960558;28;20015;-85
2021/05/17 09:57:49;;;;;;;4.78;1.48;;;24.50;83.80;;;;;;4961509;28;20043;-84
2021/05/17 10:00:25;;;;;;;6.90;1.80;;;24.40;85.00;;;;;;4961414;28;20090;-84
2021/05/17 10:02:58;;;;;;;4.85;2.00;;;24.40;85.30;;;;;;4943712;28;20037;-83
2021/05/17 10:05:26;;;;;;;3.33;1.50;;;24.60;82.00;;;;;;4961229;28;20101;-82
2021/05/17 10:07:57;;;;;;;5.13;1.70;;;24.70;79.40;;;;;;4946167;28;20031;-80
2021/05/17 10:10:23;;;;;;;;;;;24.40;80.30;;;;;;4962064;28;20011;-82
2021/05/17 10:12:53;;;;;;;4.45;1.85;;;23.90;82.50;;;;;;4963006;28;19911;-82
2021/05/17 10:15:22;;;;;;;4.97;1.45;;;23.90;84.80;;;;;;4942478;28;20375;-82
2021/05/17 10:17:48;;;;;;;2.25;1.40;;;23.80;80.50;;;;;;4960916;28;20030;-82
2021/05/17 10:20:18;;;;;;;2.95;1.30;;;23.40;81.30;;;;;;4962969;28;20019;-82
2021/05/17 10:22:45;;;;;;;2.58;1.27;;;23.80;82.00;;;;;;4961962;28;20030;-81
2021/05/17 10:25:20;;;;;;;5.05;1.20;;;23.60;81.40;;;;;;4960740;28;20039;-82
2021/05/17 10:27:48;;;;;;;4.47;1.60;;;23.80;80.00;;;;;;4959435;28;20031;-82
2021/05/17 10:30:19;;;;;;;3.67;1.48;;;24.10;79.10;;;;;;4935545;29;20031;-83
2021/05/17 10:32:53;;;;;;;2.47;1.42;;;24.40;79.60;;;;;;4935153;29;20371;-80
2021/05/17 10:35:24;;;;;;;3.67;1.48;;;24.30;78.60;;;;;;4935372;29;20177;-82
2021/05/17 10:37:50;;;;;;;;;;;24.30;78.90;;;;;;4953280;29;20536;-81
2021/05/17 10:40:40;;;;;;;4.05;1.60;;;24.20;78.10;;;;;;4952724;29;19993;-80
2021/05/17 10:43:38;;;;;;;;;;;24.30;78.40;;;;;;4945997;28;20027;-80
2021/05/17 10:49:20;;;;;;;3.28;1.42;;;24.50;79.40;;;;;;4953299;29;20498;-83
2021/05/17 10:51:45;;;;;;;2.97;1.20;;;24.70;78.10;;;;;;4935174;29;20095;-83
2021/05/17 10:54:27;;;;;;;5.18;1.80;;;24.30;77.50;;;;;;4952979;29;20027;-85
2021/05/17 10:56:59;;;;;;;2.55;1.33;;;24.20;77.80;;;;;;4954743;28;20034;-82
2021/05/17 11:02:38;;;;;;;2.58;1.17;;;24.70;76.40;;;;;;4960044;28;20030;-81
2021/05/17 11:05:15;;;;;;;3.60;1.50;;;24.50;76.70;;;;;;4966033;28;20382;-78
2021/05/17 11:07:59;;;;;;;4.65;1.60;;;24.50;76.50;;;;;;4941154;29;20039;-83
2021/05/17 11:10:43;;;;;;;7.47;1.30;;;24.60;78.50;;;;;;4935824;29;20059;-83
2021/05/17 11:13:20;;;;;;;4.85;1.88;;;24.70;77.20;;;;;;4941697;28;20721;-84
2021/05/17 11:15:59;;;;;;;3.60;1.83;;;24.50;78.10;;;;;;4965971;28;20018;-85
2021/05/17 11:18:49;;;;;;;5.63;1.73;;;24.30;79.10;;;;;;4965425;28;20155;-86
2021/05/17 11:21:27;;;;;;;3.60;1.53;;;24.30;79.20;;;;;;4941468;28;20082;-82
2021/05/17 11:23:56;;;;;;;2.55;1.33;;;24.10;80.50;;;;;;4958708;28;20026;-83
2021/05/17 11:26:23;;;;;;;3.60;1.52;;;23.90;79.00;;;;;;4943496;28;20100;-82
2021/05/17 11:28:49;;;;;;;4.05;2.10;;;23.90;79.20;;;;;;4962177;28;20055;-81
2021/05/17 11:33:56;;;;;;;7.03;2.88;;;23.90;80.20;;;;;;4972837;28;20486;-79
2021/05/17 11:36:24;;;;;;;7.78;1.85;;;23.90;81.30;;;;;;4973255;28;20030;-81
2021/05/17 11:39:14;;;;;;;3.08;1.45;;;24.00;80.70;;;;;;4973113;28;20431;-82
2021/05/17 11:41:57;;;;;;;6.20;1.60;;;24.10;79.80;;;;;;4964343;28;20020;-81
2021/05/17 11:44:35;;;;;;;4.15;1.40;;;24.00;80.10;;;;;;4959377;28;20026;-82
2021/05/17 11:47:22;;;;;;;3.53;1.40;;;23.90;83.10;;;;;;4947500;28;20019;-84
2021/05/17 11:49:49;;;;;;;5.97;1.70;;;23.80;80.30;;;;;;4945570;28;20026;-85
2021/05/17 11:52:25;;;;;;;4.75;1.50;;;23.70;80.40;;;;;;4938772;29;20180;-83
2021/05/17 11:54:53;;;;;;;4.75;1.60;;;23.80;80.90;;;;;;4946291;29;21031;-83
2021/05/17 11:57:25;;;;;;;4.53;2.40;;;23.80;80.60;;;;;;4936983;29;20050;-82
2021/05/17 11:59:52;;;;;;;4.72;1.40;;;23.60;80.20;;;;;;4946212;29;20118;-82
2021/05/17 12:02:18;;;;;;;5.30;1.83;;;23.50;80.90;;;;;;4941248;29;20024;-84
2021/05/17 12:04:47;;;;;;;4.78;1.70;;;23.40;81.20;;;;;;4938402;29;20024;-83
2021/05/17 12:07:22;;;;;;;3.85;1.50;;;23.40;82.70;;;;;;4942882;29;20039;-82
2021/05/17 12:09:50;;;;;;;6.15;2.08;;;23.50;80.80;;;;;;4939816;29;20027;-81
2021/05/17 12:12:28;;;;;;;4.68;1.83;;;23.50;81.50;;;;;;4939720;28;20035;-83
2021/05/17 12:15:10;;;;;;;7.72;2.15;;;23.50;79.80;;;;;;4934249;29;20036;-84
2021/05/17 12:17:39;;;;;;;3.70;2.00;;;23.50;79.60;;;;;;4944005;29;20503;-82
2021/05/17 12:20:46;;;;;;;2.53;1.45;;;23.50;79.40;;;;;;4945204;29;20034;-82
2021/05/17 12:23:12;;;;;;;6.53;2.22;;;23.40;78.50;;;;;;4938884;29;20020;-82
2021/05/17 12:25:37;;;;;;;6.78;2.35;;;23.40;78.90;;;;;;4939691;29;21075;-81
2021/05/17 12:28:03;;;;;;;6.35;2.65;;;23.50;81.40;;;;;;4943264;29;20041;-82
2021/05/17 12:30:29;;;;;;;5.10;1.58;;;23.60;81.60;;;;;;4945894;29;20034;-85
2021/05/17 12:36:48;;;;;;;6.45;2.38;;;23.40;80.00;;;;;;4943457;29;20038;-84
2021/05/17 12:39:20;;;;;;;4.35;1.60;;;23.50;80.20;;;;;;4942167;29;20398;-83
2021/05/17 12:41:47;;;;;;;4.93;2.10;;;23.50;79.70;;;;;;4937822;29;20038;-82
2021/05/17 12:44:35;;;;;;;7.70;2.15;;;23.60;79.10;;;;;;4944277;29;20451;-83
2021/05/17 12:47:05;;;;;;;5.32;2.10;;;23.70;82.00;;;;;;4941368;29;20130;-83
2021/05/17 12:49:43;;;;;;;5.88;2.10;;;23.60;82.60;;;;;;4939071;29;20492;-84
2021/05/17 12:52:09;;;;;;;6.43;2.13;;;23.90;82.00;;;;;;4941422;29;20180;-83
2021/05/17 12:54:35;;;;;;;7.38;2.15;;;24.00;82.00;;;;;;4943981;28;20116;-84
2021/05/17 12:57:11;;;;;;;6.95;1.63;;;23.90;81.50;;;;;;4942647;29;20530;-83
2021/05/17 13:00:31;;;;;;;3.05;1.35;;;23.80;79.40;;;;;;4940934;29;20091;-81
2021/05/17 13:03:02;;;;;;;5.85;2.05;;;23.60;78.60;;;;;;4938745;29;20107;-80
2021/05/17 13:05:49;;;;;;;4.03;1.75;;;23.70;78.90;;;;;;4942341;28;20055;-82
2021/05/17 13:08:15;;;;;;;6.47;1.60;;;23.80;78.40;;;;;;4939679;29;20020;-80
2021/05/17 13:14:10;;;;;;;4.50;1.50;;;23.60;79.10;;;;;;4910885;29;20379;-83
2021/05/17 13:16:37;;;;;;;4.50;1.60;;;23.40;78.50;;;;;;4936614;29;20040;-83
2021/05/17 13:19:24;;;;;;;4.70;1.80;;;23.50;78.90;;;;;;4942619;28;20035;-84
2021/05/17 13:30:43;;;;;;;7.95;2.28;;;23.60;80.70;;;;;;4954133;28;20023;-86
2021/05/17 13:33:18;;;;;;;6.70;2.80;;;23.80;78.90;;;;;;4952807;29;20479;-86
2021/05/17 13:35:44;;;;;;;12.00;2.58;;;23.90;80.10;;;;;;4953143;29;20114;-88
2021/05/17 13:38:10;;;;;;;8.70;2.40;;;23.80;78.80;;;;;;4952540;29;20527;-84
2021/05/17 13:40:35;;;;;;;8.70;2.70;;;23.80;81.10;;;;;;4953105;29;20542;-85
2021/05/17 13:43:01;;;;;;;8.40;2.33;;;23.90;82.20;;;;;;4952730;28;20098;-88
2021/05/17 13:45:27;;;;;;;5.82;1.90;;;24.00;80.60;;;;;;4940150;29;20024;-86
2021/05/17 13:47:53;;;;;;;9.32;2.05;;;23.80;78.30;;;;;;4935501;29;20480;-84